Weather History for KCHK - October, 2013

Change the Weather History Date:

Monday, October 21, 2013

  Actual Average Record
Temperature  
Mean Temperature 50 °F -  
Max Temperature 62 °F 74 °F 91 °F (2003)
Min Temperature 39 °F 47 °F 31 °F (1987)
Degree Days  
Heating Degree Days 14    
Moisture  
Dew Point 43 °F    
Average Humidity 71    
Maximum Humidity 100    
Minimum Humidity 39    
Precipitation  
Precipitation 0.00 in - - ()
Sea Level Pressure  
Sea Level Pressure 30.05 in    
Wind  
Wind Speed 10 mph (NNE)    
Max Wind Speed 28 mph    
Max Gust Speed 34 mph    
Visibility 10 miles    
Events      
Averages and records for this station are not official NWS values.
T = Trace of Precipitation, MM = Missing Value Source: NWS Daily Summary

Daily Weather History Graph

Daily Weather History Graph

Search for Another Location

Airport or City:

Trip Planner

Search our weather history database for the weather conditions in past years. The results will help you decide how hot, cold, wet, or windy it might be!

Date:

Astronomy

Oct. 21, 2013 Rise Set
Actual Time 7:43 AM CDT 6:49 PM CDT
Civil Twilight 7:17 AM CDT 7:14 PM CDT
Nautical Twilight 6:47 AM CDT 7:44 PM CDT
Astronomical Twilight 6:18 AM CDT 8:13 PM CDT
Moon 8:48 PM CDT (10/21) 10:14 AM CDT (10/21)
Length of Visible Light 11h 57m
Length of Day
11h 05m
Waning Gibbous, 92% of the Moon is Illuminated
Oct 21
Waning Gibbous
Oct 26
Last Quarter
Nov 3
New
Nov 9
First Quarter
Nov 17
Full

Hourly Weather History & Observations

Time (CDT) Temp. Windchill Dew Point Humidity Pressure Visibility Wind Dir Wind Speed Gust Speed Precip Events Conditions
12:15 AM 55.4 °F - 46.4 °F 72% 29.90 in 10.0 mi East 8.1 mph - N/A   Scattered Clouds
12:35 AM 55.4 °F - 46.4 °F 72% 29.91 in 10.0 mi East 8.1 mph - N/A   Mostly Cloudy
12:55 AM 55.4 °F - 46.4 °F 72% 29.93 in 10.0 mi North 10.4 mph - N/A   Overcast
1:15 AM 55.4 °F - 46.4 °F 72% 29.93 in 10.0 mi NE 8.1 mph - N/A   Overcast
1:35 AM 53.6 °F - 46.4 °F 77% 29.93 in 10.0 mi NE 8.1 mph - N/A   Scattered Clouds
1:55 AM 55.4 °F - 46.4 °F 72% 29.94 in 10.0 mi ENE 6.9 mph - N/A   Mostly Cloudy
2:15 AM 55.4 °F - 46.4 °F 72% 29.94 in 10.0 mi East 8.1 mph - N/A   Overcast
2:35 AM 59.0 °F - 46.4 °F 63% 29.94 in 10.0 mi East 5.8 mph - N/A   Overcast
2:55 AM 59.0 °F - 46.4 °F 63% 29.95 in 10.0 mi ESE 4.6 mph - N/A   Overcast
3:15 AM 59.0 °F - 46.4 °F 63% 29.94 in 10.0 mi SSE 3.5 mph - N/A   Overcast
3:35 AM 59.0 °F - 46.4 °F 63% 29.93 in 10.0 mi SE 5.8 mph - N/A   Overcast
3:55 AM 55.4 °F - 46.4 °F 72% 29.93 in 10.0 mi SE 3.5 mph - N/A   Mostly Cloudy
4:15 AM 55.4 °F - 46.4 °F 72% 29.93 in 10.0 mi East 3.5 mph - N/A   Scattered Clouds
4:35 AM 53.6 °F - 48.2 °F 82% 29.94 in 10.0 mi North 8.1 mph - N/A   Scattered Clouds
4:55 AM 53.6 °F - 51.8 °F 94% 29.94 in 10.0 mi NNE 9.2 mph - N/A   Scattered Clouds
5:15 AM 51.8 °F - 50.0 °F 94% 29.95 in 10.0 mi NNE 6.9 mph - N/A   Clear
5:35 AM 50.0 °F - 50.0 °F 100% 29.96 in 10.0 mi NNE 6.9 mph - N/A   Clear
5:55 AM 48.2 °F - 46.4 °F 93% 29.97 in 10.0 mi NNE 6.9 mph - N/A   Clear
6:15 AM 48.2 °F - 48.2 °F 100% 29.97 in 10.0 mi NNE 6.9 mph - N/A   Clear
6:35 AM 48.2 °F - 48.2 °F 100% 29.98 in 10.0 mi North 8.1 mph - N/A   Clear
6:55 AM 48.2 °F - 48.2 °F 100% 29.98 in 10.0 mi NNE 10.4 mph - N/A   Clear
7:15 AM 48.2 °F - 46.4 °F 93% 29.99 in 10.0 mi North 9.2 mph - N/A   Clear
7:35 AM 48.2 °F - 46.4 °F 93% 30.00 in 10.0 mi NNE 10.4 mph - N/A   Clear
7:55 AM 48.2 °F - 46.4 °F 93% 30.01 in 10.0 mi North 10.4 mph - N/A   Scattered Clouds
8:15 AM 48.2 °F - 46.4 °F 93% 30.02 in 10.0 mi NNE 13.8 mph - N/A   Scattered Clouds
8:35 AM 48.2 °F - 46.4 °F 93% 30.02 in 10.0 mi NNE 15.0 mph - N/A   Clear
8:55 AM 48.2 °F - 46.4 °F 93% 30.04 in 10.0 mi NNE 18.4 mph - N/A   Scattered Clouds
9:15 AM 50.0 °F - 46.4 °F 87% 30.05 in 10.0 mi NNE 18.4 mph 23.0 mph N/A   Overcast
9:35 AM 51.8 °F - 46.4 °F 82% 30.06 in 10.0 mi NNE 19.6 mph 24.2 mph N/A   Overcast
9:55 AM 51.8 °F - 46.4 °F 82% 30.07 in 10.0 mi NNE 24.2 mph 29.9 mph N/A   Overcast
10:15 AM 53.6 °F - 46.4 °F 77% 30.07 in 10.0 mi NNE 23.0 mph 28.8 mph N/A   Overcast
10:35 AM 53.6 °F - 46.4 °F 77% 30.08 in 10.0 mi NNE 23.0 mph 29.9 mph N/A   Overcast
10:55 AM 55.4 °F - 46.4 °F 72% 30.09 in 10.0 mi NE 27.6 mph 32.2 mph N/A   Mostly Cloudy
11:15 AM 55.4 °F - 44.6 °F 67% 30.09 in 10.0 mi NNE 23.0 mph 29.9 mph N/A   Mostly Cloudy
11:35 AM 55.4 °F - 42.8 °F 63% 30.09 in 10.0 mi NE 26.5 mph 32.2 mph N/A   Mostly Cloudy
11:55 AM 59.0 °F - 42.8 °F 55% 30.09 in 10.0 mi NNE 25.3 mph 34.5 mph N/A   Scattered Clouds
12:15 PM 59.0 °F - 42.8 °F 55% 30.10 in 10.0 mi NE 25.3 mph 31.1 mph N/A   Scattered Clouds
12:35 PM 59.0 °F - 41.0 °F 51% 30.10 in 10.0 mi NNE 20.7 mph 26.5 mph N/A   Clear
12:55 PM 60.8 °F - 41.0 °F 48% 30.11 in 10.0 mi NNE 19.6 mph 27.6 mph N/A   Scattered Clouds
1:15 PM 59.0 °F - 41.0 °F 51% 30.10 in 10.0 mi NNE 18.4 mph 27.6 mph N/A   Mostly Cloudy
1:35 PM 60.8 °F - 41.0 °F 48% 30.09 in 10.0 mi NE 18.4 mph - N/A   Mostly Cloudy
1:55 PM 60.8 °F - 37.4 °F 42% 30.09 in 10.0 mi NE 19.6 mph 27.6 mph N/A   Mostly Cloudy
2:15 PM 62.6 °F - 41.0 °F 45% 30.08 in 10.0 mi NNE 19.6 mph 28.8 mph N/A   Mostly Cloudy
2:35 PM 62.6 °F - 41.0 °F 45% 30.08 in 10.0 mi NNE 15.0 mph 26.5 mph N/A   Scattered Clouds
2:55 PM 62.6 °F - 42.8 °F 48% 30.08 in 10.0 mi North 15.0 mph 24.2 mph N/A   Clear
3:15 PM 62.6 °F - 41.0 °F 45% 30.08 in 10.0 mi North 20.7 mph - N/A   Clear
3:35 PM 62.6 °F - 41.0 °F 45% 30.09 in 10.0 mi NNE 16.1 mph - N/A   Clear
3:55 PM 62.6 °F - 39.2 °F 42% 30.08 in 10.0 mi NNE 19.6 mph 23.0 mph N/A   Clear
4:15 PM 62.6 °F - 37.4 °F 39% 30.08 in 10.0 mi NNE 18.4 mph 24.2 mph N/A   Clear
4:35 PM 62.6 °F - 37.4 °F 39% 30.09 in 10.0 mi NNE 16.1 mph - N/A   Clear
4:55 PM 62.6 °F - 37.4 °F 39% 30.09 in 10.0 mi NNE 12.7 mph 18.4 mph N/A   Clear
5:15 PM 62.6 °F - 37.4 °F 39% 30.10 in 2.5 mi NNE 12.7 mph - N/A   Haze
5:35 PM 60.8 °F - 39.2 °F 45% 30.10 in 10.0 mi North 11.5 mph - N/A   Clear
5:55 PM 60.8 °F - 37.4 °F 42% 30.11 in 10.0 mi North 10.4 mph - N/A   Clear
6:15 PM 59.0 °F - 39.2 °F 48% 30.11 in 10.0 mi North 11.5 mph - N/A   Clear
6:35 PM 55.4 °F - 39.2 °F 54% 30.10 in 10.0 mi North 8.1 mph - N/A   Clear
6:55 PM 53.6 °F - 41.0 °F 62% 30.11 in 10.0 mi North 8.1 mph - N/A   Clear
7:15 PM 51.8 °F - 41.0 °F 67% 30.12 in 10.0 mi North 5.8 mph - N/A   Clear
7:35 PM 51.8 °F - 41.0 °F 67% 30.12 in 10.0 mi NNE 4.6 mph - N/A   Clear
7:55 PM 50.0 °F - 41.0 °F 71% 30.12 in 10.0 mi North 4.6 mph - N/A   Clear
8:15 PM 48.2 °F - 41.0 °F 76% 30.13 in 10.0 mi North 5.8 mph - N/A   Clear
8:35 PM 48.2 °F - 41.0 °F 76% 30.14 in 10.0 mi North 4.6 mph - N/A   Clear
8:55 PM 48.2 °F - 42.8 °F 82% 30.14 in 10.0 mi North 3.5 mph - N/A   Clear
9:15 PM 46.4 °F - 42.8 °F 87% 30.14 in 10.0 mi Calm Calm - N/A   Clear
9:35 PM 46.4 °F - 41.0 °F 81% 30.14 in 10.0 mi Calm Calm - N/A   Clear
9:55 PM 42.8 °F - 41.0 °F 93% 30.13 in 10.0 mi Calm Calm - N/A   Clear
10:15 PM 41.0 °F 39.0 °F 39.2 °F 93% 30.14 in 10.0 mi West 3.5 mph - N/A   Clear
10:35 PM 41.0 °F - 39.2 °F 93% 30.14 in 10.0 mi Calm Calm - N/A   Clear
10:55 PM 41.0 °F - 39.2 °F 93% 30.14 in 10.0 mi Calm Calm - N/A   Clear
11:15 PM 41.0 °F - 41.0 °F 100% 30.14 in 10.0 mi Calm Calm - N/A   Clear
11:35 PM 39.2 °F 35.9 °F 37.4 °F 93% 30.15 in 10.0 mi WNW 4.6 mph - N/A   Clear
11:55 PM 39.2 °F 37.0 °F 37.4 °F 93% 30.15 in 10.0 mi West 3.5 mph - N/A   Clear